sensor_id;sensor_type;location;lat;lon;timestamp;P1;durP1;ratioP1;P2;durP2;ratioP2
61673;SDS011;47573;43.832;5.974;2023-05-27T00:05:29;343.27;;;240.90;;
61673;SDS011;47573;43.832;5.974;2023-05-27T00:12:09;341.47;;;236.90;;
61673;SDS011;47573;43.832;5.974;2023-05-27T00:18:51;331.00;;;235.30;;
61673;SDS011;47573;43.832;5.974;2023-05-27T00:25:32;328.80;;;230.83;;
61673;SDS011;47573;43.832;5.974;2023-05-27T00:32:12;330.23;;;230.13;;
61673;SDS011;47573;43.832;5.974;2023-05-27T00:38:54;324.70;;;229.80;;
61673;SDS011;47573;43.832;5.974;2023-05-27T00:45:35;322.55;;;223.77;;
61673;SDS011;47573;43.832;5.974;2023-05-27T00:52:15;325.35;;;223.73;;
61673;SDS011;47573;43.832;5.974;2023-05-27T00:58:57;322.35;;;223.70;;
61673;SDS011;47573;43.832;5.974;2023-05-27T01:05:38;322.80;;;220.47;;
61673;SDS011;47573;43.832;5.974;2023-05-27T01:12:21;313.25;;;219.07;;
61673;SDS011;47573;43.832;5.974;2023-05-27T01:19:12;313.08;;;221.43;;
61673;SDS011;47573;43.832;5.974;2023-05-27T01:25:55;310.70;;;216.50;;
61673;SDS011;47573;43.832;5.974;2023-05-27T01:32:36;306.90;;;211.50;;
61673;SDS011;47573;43.832;5.974;2023-05-27T01:39:21;307.38;;;212.52;;
61673;SDS011;47573;43.832;5.974;2023-05-27T01:46:05;305.45;;;209.18;;
61673;SDS011;47573;43.832;5.974;2023-05-27T01:52:46;293.80;;;202.37;;
61673;SDS011;47573;43.832;5.974;2023-05-27T01:59:26;290.43;;;200.87;;
61673;SDS011;47573;43.832;5.974;2023-05-27T02:06:08;288.87;;;197.30;;
61673;SDS011;47573;43.832;5.974;2023-05-27T02:12:49;288.90;;;194.27;;
61673;SDS011;47573;43.832;5.974;2023-05-27T02:19:29;278.87;;;191.57;;
61673;SDS011;47573;43.832;5.974;2023-05-27T02:26:11;280.97;;;189.33;;
61673;SDS011;47573;43.832;5.974;2023-05-27T02:32:51;271.27;;;184.53;;
61673;SDS011;47573;43.832;5.974;2023-05-27T02:39:32;279.27;;;185.67;;
61673;SDS011;47573;43.832;5.974;2023-05-27T02:46:14;272.27;;;179.53;;
61673;SDS011;47573;43.832;5.974;2023-05-27T02:52:54;265.50;;;179.27;;
61673;SDS011;47573;43.832;5.974;2023-05-27T02:59:35;266.73;;;177.47;;
61673;SDS011;47573;43.832;5.974;2023-05-27T03:06:16;260.70;;;175.20;;
61673;SDS011;47573;43.832;5.974;2023-05-27T03:12:57;261.45;;;170.57;;
61673;SDS011;47573;43.832;5.974;2023-05-27T03:19:37;253.70;;;166.43;;
61673;SDS011;47573;43.832;5.974;2023-05-27T03:26:19;252.03;;;167.17;;
61673;SDS011;47573;43.832;5.974;2023-05-27T03:33:00;249.90;;;163.13;;
61673;SDS011;47573;43.832;5.974;2023-05-27T03:39:41;243.20;;;161.23;;
61673;SDS011;47573;43.832;5.974;2023-05-27T03:46:23;237.87;;;155.20;;
61673;SDS011;47573;43.832;5.974;2023-05-27T03:53:03;238.03;;;156.47;;
61673;SDS011;47573;43.832;5.974;2023-05-27T03:59:44;232.33;;;149.57;;
61673;SDS011;47573;43.832;5.974;2023-05-27T04:06:26;223.03;;;145.30;;
61673;SDS011;47573;43.832;5.974;2023-05-27T04:13:06;226.15;;;146.10;;
61673;SDS011;47573;43.832;5.974;2023-05-27T04:19:47;218.67;;;144.30;;
61673;SDS011;47573;43.832;5.974;2023-05-27T04:26:29;213.73;;;139.53;;
61673;SDS011;47573;43.832;5.974;2023-05-27T04:33:09;200.83;;;134.33;;
61673;SDS011;47573;43.832;5.974;2023-05-27T04:39:50;199.07;;;128.80;;
61673;SDS011;47573;43.832;5.974;2023-05-27T04:46:32;190.30;;;125.93;;
61673;SDS011;47573;43.832;5.974;2023-05-27T04:53:13;192.23;;;126.37;;
61673;SDS011;47573;43.832;5.974;2023-05-27T04:59:53;181.57;;;121.40;;
61673;SDS011;47573;43.832;5.974;2023-05-27T05:06:35;185.97;;;123.63;;
61673;SDS011;47573;43.832;5.974;2023-05-27T05:13:15;178.65;;;119.70;;
61673;SDS011;47573;43.832;5.974;2023-05-27T05:19:56;171.00;;;111.03;;
61673;SDS011;47573;43.832;5.974;2023-05-27T05:26:38;153.33;;;100.83;;
61673;SDS011;47573;43.832;5.974;2023-05-27T05:33:18;148.03;;;98.43;;
61673;SDS011;47573;43.832;5.974;2023-05-27T05:39:59;145.77;;;96.37;;
61673;SDS011;47573;43.832;5.974;2023-05-27T05:46:41;146.57;;;93.90;;
61673;SDS011;47573;43.832;5.974;2023-05-27T05:53:21;142.07;;;92.83;;
61673;SDS011;47573;43.832;5.974;2023-05-27T06:00:02;144.52;;;93.47;;
61673;SDS011;47573;43.832;5.974;2023-05-27T06:06:45;87.55;;;58.13;;
61673;SDS011;47573;43.832;5.974;2023-05-27T06:13:26;486.13;;;228.33;;
61673;SDS011;47573;43.832;5.974;2023-05-27T06:20:06;899.53;;;382.70;;
61673;SDS011;47573;43.832;5.974;2023-05-27T06:26:49;387.17;;;139.95;;
61673;SDS011;47573;43.832;5.974;2023-05-27T06:33:29;599.50;;;213.45;;
61673;SDS011;47573;43.832;5.974;2023-05-27T06:40:10;168.43;;;68.40;;
61673;SDS011;47573;43.832;5.974;2023-05-27T06:46:52;123.78;;;60.50;;
61673;SDS011;47573;43.832;5.974;2023-05-27T06:53:33;74.00;;;44.60;;
61673;SDS011;47573;43.832;5.974;2023-05-27T07:00:14;107.32;;;50.00;;
61673;SDS011;47573;43.832;5.974;2023-05-27T07:06:56;73.90;;;47.72;;
61673;SDS011;47573;43.832;5.974;2023-05-27T07:13:36;81.18;;;48.15;;
61673;SDS011;47573;43.832;5.974;2023-05-27T07:20:17;65.07;;;42.70;;
61673;SDS011;47573;43.832;5.974;2023-05-27T07:26:59;56.40;;;38.67;;
61673;SDS011;47573;43.832;5.974;2023-05-27T07:33:39;67.63;;;39.10;;
61673;SDS011;47573;43.832;5.974;2023-05-27T07:40:20;53.63;;;36.53;;
61673;SDS011;47573;43.832;5.974;2023-05-27T07:47:02;51.67;;;34.10;;
61673;SDS011;47573;43.832;5.974;2023-05-27T07:53:42;43.78;;;28.30;;
61673;SDS011;47573;43.832;5.974;2023-05-27T08:00:23;38.30;;;24.75;;
61673;SDS011;47573;43.832;5.974;2023-05-27T08:07:05;33.47;;;20.80;;
61673;SDS011;47573;43.832;5.974;2023-05-27T08:13:45;32.30;;;20.87;;
61673;SDS011;47573;43.832;5.974;2023-05-27T08:20:26;29.70;;;20.00;;
61673;SDS011;47573;43.832;5.974;2023-05-27T08:27:14;24.77;;;15.60;;
61673;SDS011;47573;43.832;5.974;2023-05-27T08:33:56;21.25;;;15.10;;
61673;SDS011;47573;43.832;5.974;2023-05-27T08:40:36;143.13;;;67.75;;
61673;SDS011;47573;43.832;5.974;2023-05-27T08:47:19;13.55;;;10.15;;
61673;SDS011;47573;43.832;5.974;2023-05-27T08:53:59;14.83;;;10.40;;
61673;SDS011;47573;43.832;5.974;2023-05-27T09:00:41;19.40;;;11.82;;
61673;SDS011;47573;43.832;5.974;2023-05-27T09:07:23;17.63;;;12.68;;
61673;SDS011;47573;43.832;5.974;2023-05-27T09:14:04;19.40;;;12.33;;
61673;SDS011;47573;43.832;5.974;2023-05-27T09:20:44;18.63;;;12.53;;
61673;SDS011;47573;43.832;5.974;2023-05-27T09:27:26;21.33;;;12.97;;
61673;SDS011;47573;43.832;5.974;2023-05-27T09:34:11;18.95;;;13.38;;
61673;SDS011;47573;43.832;5.974;2023-05-27T09:40:52;19.10;;;13.20;;
61673;SDS011;47573;43.832;5.974;2023-05-27T09:47:34;17.03;;;12.23;;
61673;SDS011;47573;43.832;5.974;2023-05-27T09:54:17;17.13;;;12.50;;
61673;SDS011;47573;43.832;5.974;2023-05-27T10:00:59;18.70;;;12.60;;
61673;SDS011;47573;43.832;5.974;2023-05-27T10:07:41;19.93;;;12.60;;
61673;SDS011;47573;43.832;5.974;2023-05-27T10:14:22;17.90;;;12.82;;
61673;SDS011;47573;43.832;5.974;2023-05-27T10:21:03;16.55;;;11.98;;
61673;SDS011;47573;43.832;5.974;2023-05-27T10:27:46;18.75;;;12.10;;
61673;SDS011;47573;43.832;5.974;2023-05-27T10:34:33;29.30;;;15.82;;
61673;SDS011;47573;43.832;5.974;2023-05-27T10:41:14;19.25;;;12.65;;
61673;SDS011;47573;43.832;5.974;2023-05-27T10:47:57;17.55;;;12.60;;
61673;SDS011;47573;43.832;5.974;2023-05-27T10:54:37;16.73;;;11.83;;
61673;SDS011;47573;43.832;5.974;2023-05-27T11:01:18;17.90;;;12.50;;
61673;SDS011;47573;43.832;5.974;2023-05-27T11:08:05;15.65;;;11.82;;
61673;SDS011;47573;43.832;5.974;2023-05-27T11:14:52;16.83;;;11.85;;
61673;SDS011;47573;43.832;5.974;2023-05-27T11:21:33;15.30;;;11.73;;
61673;SDS011;47573;43.832;5.974;2023-05-27T11:28:15;16.63;;;11.70;;
61673;SDS011;47573;43.832;5.974;2023-05-27T11:41:36;14.55;;;10.50;;
61673;SDS011;47573;43.832;5.974;2023-05-27T11:48:29;14.57;;;11.07;;
61673;SDS011;47573;43.832;5.974;2023-05-27T11:55:13;14.27;;;10.57;;
61673;SDS011;47573;43.832;5.974;2023-05-27T12:01:54;15.63;;;10.73;;
61673;SDS011;47573;43.832;5.974;2023-05-27T12:08:36;14.90;;;10.67;;
61673;SDS011;47573;43.832;5.974;2023-05-27T12:15:16;14.83;;;11.03;;
61673;SDS011;47573;43.832;5.974;2023-05-27T12:21:57;18.00;;;12.20;;
61673;SDS011;47573;43.832;5.974;2023-05-27T12:28:39;20.30;;;11.97;;
61673;SDS011;47573;43.832;5.974;2023-05-27T12:35:19;13.77;;;10.90;;
61673;SDS011;47573;43.832;5.974;2023-05-27T12:42:00;23.83;;;12.82;;
61673;SDS011;47573;43.832;5.974;2023-05-27T12:48:42;14.10;;;10.87;;
61673;SDS011;47573;43.832;5.974;2023-05-27T12:55:22;26.73;;;15.13;;
61673;SDS011;47573;43.832;5.974;2023-05-27T13:02:03;15.23;;;10.90;;
61673;SDS011;47573;43.832;5.974;2023-05-27T13:08:44;13.90;;;10.67;;
61673;SDS011;47573;43.832;5.974;2023-05-27T13:15:25;14.57;;;10.53;;
61673;SDS011;47573;43.832;5.974;2023-05-27T13:22:06;13.95;;;10.35;;
61673;SDS011;47573;43.832;5.974;2023-05-27T13:28:48;15.00;;;10.33;;
61673;SDS011;47573;43.832;5.974;2023-05-27T13:35:29;15.67;;;10.37;;
61673;SDS011;47573;43.832;5.974;2023-05-27T13:42:09;469.70;;;266.70;;
61673;SDS011;47573;43.832;5.974;2023-05-27T13:48:51;12.93;;;10.00;;
61673;SDS011;47573;43.832;5.974;2023-05-27T13:55:32;13.27;;;10.43;;
61673;SDS011;47573;43.832;5.974;2023-05-27T14:02:12;12.17;;;9.50;;
61673;SDS011;47573;43.832;5.974;2023-05-27T14:08:54;734.43;;;302.43;;
61673;SDS011;47573;43.832;5.974;2023-05-27T14:15:35;16.40;;;11.25;;
61673;SDS011;47573;43.832;5.974;2023-05-27T14:22:15;13.38;;;9.93;;
61673;SDS011;47573;43.832;5.974;2023-05-27T14:28:57;92.97;;;31.90;;
61673;SDS011;47573;43.832;5.974;2023-05-27T14:35:38;31.98;;;13.20;;
61673;SDS011;47573;43.832;5.974;2023-05-27T14:42:19;741.03;;;336.80;;
61673;SDS011;47573;43.832;5.974;2023-05-27T14:49:01;44.67;;;30.45;;
61673;SDS011;47573;43.832;5.974;2023-05-27T14:55:41;34.63;;;20.00;;
61673;SDS011;47573;43.832;5.974;2023-05-27T15:02:22;56.95;;;24.75;;
61673;SDS011;47573;43.832;5.974;2023-05-27T15:09:04;15.03;;;11.20;;
61673;SDS011;47573;43.832;5.974;2023-05-27T15:15:44;16.17;;;11.10;;
61673;SDS011;47573;43.832;5.974;2023-05-27T15:22:25;14.45;;;10.13;;
61673;SDS011;47573;43.832;5.974;2023-05-27T15:29:07;15.07;;;10.93;;
61673;SDS011;47573;43.832;5.974;2023-05-27T15:35:47;16.73;;;10.80;;
61673;SDS011;47573;43.832;5.974;2023-05-27T15:42:28;18.87;;;11.47;;
61673;SDS011;47573;43.832;5.974;2023-05-27T15:49:10;16.70;;;11.40;;
61673;SDS011;47573;43.832;5.974;2023-05-27T15:55:53;13.48;;;9.85;;
61673;SDS011;47573;43.832;5.974;2023-05-27T16:02:34;16.57;;;11.00;;
61673;SDS011;47573;43.832;5.974;2023-05-27T16:09:16;17.02;;;10.52;;
61673;SDS011;47573;43.832;5.974;2023-05-27T16:15:56;18.10;;;10.63;;
61673;SDS011;47573;43.832;5.974;2023-05-27T16:22:37;17.67;;;10.60;;
61673;SDS011;47573;43.832;5.974;2023-05-27T16:29:19;51.75;;;34.67;;
61673;SDS011;47573;43.832;5.974;2023-05-27T16:35:59;68.00;;;43.47;;
61673;SDS011;47573;43.832;5.974;2023-05-27T16:42:40;69.20;;;45.67;;
61673;SDS011;47573;43.832;5.974;2023-05-27T16:49:22;71.40;;;46.95;;
61673;SDS011;47573;43.832;5.974;2023-05-27T16:56:04;79.28;;;52.50;;
61673;SDS011;47573;43.832;5.974;2023-05-27T17:02:45;74.43;;;49.75;;
61673;SDS011;47573;43.832;5.974;2023-05-27T17:09:27;58.17;;;41.03;;
61673;SDS011;47573;43.832;5.974;2023-05-27T17:16:07;85.20;;;57.60;;
61673;SDS011;47573;43.832;5.974;2023-05-27T17:22:48;91.18;;;59.92;;
61673;SDS011;47573;43.832;5.974;2023-05-27T17:29:30;66.40;;;45.47;;
61673;SDS011;47573;43.832;5.974;2023-05-27T17:36:10;52.43;;;35.13;;
61673;SDS011;47573;43.832;5.974;2023-05-27T17:42:51;38.00;;;23.97;;
61673;SDS011;47573;43.832;5.974;2023-05-27T17:49:33;36.77;;;25.57;;
61673;SDS011;47573;43.832;5.974;2023-05-27T17:56:13;35.20;;;20.87;;
61673;SDS011;47573;43.832;5.974;2023-05-27T18:02:54;33.30;;;20.40;;
61673;SDS011;47573;43.832;5.974;2023-05-27T18:09:36;13.10;;;9.20;;
61673;SDS011;47573;43.832;5.974;2023-05-27T18:16:16;13.90;;;9.50;;
61673;SDS011;47573;43.832;5.974;2023-05-27T18:22:57;16.40;;;8.83;;
61673;SDS011;47573;43.832;5.974;2023-05-27T18:29:38;14.17;;;7.87;;
61673;SDS011;47573;43.832;5.974;2023-05-27T18:36:19;16.50;;;8.07;;
61673;SDS011;47573;43.832;5.974;2023-05-27T18:42:59;27.47;;;18.97;;
61673;SDS011;47573;43.832;5.974;2023-05-27T18:49:42;26.83;;;17.10;;
61673;SDS011;47573;43.832;5.974;2023-05-27T18:56:23;27.00;;;16.97;;
61673;SDS011;47573;43.832;5.974;2023-05-27T19:03:03;17.65;;;10.15;;
61673;SDS011;47573;43.832;5.974;2023-05-27T19:09:45;23.25;;;14.88;;
61673;SDS011;47573;43.832;5.974;2023-05-27T19:16:26;23.43;;;12.23;;
61673;SDS011;47573;43.832;5.974;2023-05-27T19:23:06;27.40;;;14.77;;
61673;SDS011;47573;43.832;5.974;2023-05-27T19:29:48;28.33;;;17.00;;
61673;SDS011;47573;43.832;5.974;2023-05-27T19:36:28;46.00;;;26.77;;
61673;SDS011;47573;43.832;5.974;2023-05-27T19:43:09;43.03;;;25.20;;
61673;SDS011;47573;43.832;5.974;2023-05-27T19:49:51;50.77;;;30.23;;
61673;SDS011;47573;43.832;5.974;2023-05-27T19:56:31;83.23;;;54.83;;
61673;SDS011;47573;43.832;5.974;2023-05-27T20:03:12;207.07;;;113.43;;
61673;SDS011;47573;43.832;5.974;2023-05-27T20:09:54;164.63;;;113.80;;
61673;SDS011;47573;43.832;5.974;2023-05-27T20:16:34;167.65;;;114.85;;
61673;SDS011;47573;43.832;5.974;2023-05-27T20:23:15;171.93;;;121.53;;
61673;SDS011;47573;43.832;5.974;2023-05-27T20:29:56;202.73;;;142.32;;
61673;SDS011;47573;43.832;5.974;2023-05-27T20:36:37;196.00;;;138.40;;
61673;SDS011;47573;43.832;5.974;2023-05-27T20:43:18;194.20;;;135.37;;
61673;SDS011;47573;43.832;5.974;2023-05-27T20:49:59;183.90;;;132.32;;
61673;SDS011;47573;43.832;5.974;2023-05-27T20:56:40;177.77;;;129.63;;
61673;SDS011;47573;43.832;5.974;2023-05-27T21:03:20;203.18;;;143.98;;
61673;SDS011;47573;43.832;5.974;2023-05-27T21:10:02;210.90;;;152.20;;
61673;SDS011;47573;43.832;5.974;2023-05-27T21:16:43;220.77;;;159.02;;
61673;SDS011;47573;43.832;5.974;2023-05-27T21:23:24;206.73;;;150.23;;
61673;SDS011;47573;43.832;5.974;2023-05-27T21:30:07;213.40;;;151.65;;
61673;SDS011;47573;43.832;5.974;2023-05-27T21:36:47;199.40;;;141.50;;
61673;SDS011;47573;43.832;5.974;2023-05-27T21:43:28;221.93;;;156.47;;
61673;SDS011;47573;43.832;5.974;2023-05-27T21:50:10;243.38;;;177.10;;
61673;SDS011;47573;43.832;5.974;2023-05-27T21:56:50;262.63;;;193.70;;
61673;SDS011;47573;43.832;5.974;2023-05-27T22:03:31;269.00;;;190.83;;
61673;SDS011;47573;43.832;5.974;2023-05-27T22:10:13;282.97;;;209.47;;
61673;SDS011;47573;43.832;5.974;2023-05-27T22:16:53;279.70;;;208.73;;
61673;SDS011;47573;43.832;5.974;2023-05-27T22:23:34;299.07;;;219.87;;
61673;SDS011;47573;43.832;5.974;2023-05-27T22:30:15;292.07;;;219.23;;
61673;SDS011;47573;43.832;5.974;2023-05-27T22:36:56;318.57;;;239.13;;
61673;SDS011;47573;43.832;5.974;2023-05-27T22:43:36;327.20;;;245.13;;
61673;SDS011;47573;43.832;5.974;2023-05-27T22:50:18;343.87;;;259.40;;
61673;SDS011;47573;43.832;5.974;2023-05-27T22:56:59;347.95;;;264.80;;
61673;SDS011;47573;43.832;5.974;2023-05-27T23:03:39;377.63;;;285.40;;
61673;SDS011;47573;43.832;5.974;2023-05-27T23:10:21;386.83;;;292.70;;
61673;SDS011;47573;43.832;5.974;2023-05-27T23:17:02;374.83;;;286.17;;
61673;SDS011;47573;43.832;5.974;2023-05-27T23:23:43;376.17;;;287.48;;
61673;SDS011;47573;43.832;5.974;2023-05-27T23:30:24;379.33;;;282.60;;
61673;SDS011;47573;43.832;5.974;2023-05-27T23:37:05;399.27;;;301.33;;
61673;SDS011;47573;43.832;5.974;2023-05-27T23:43:46;408.02;;;307.13;;
61673;SDS011;47573;43.832;5.974;2023-05-27T23:50:27;389.47;;;295.57;;
61673;SDS011;47573;43.832;5.974;2023-05-27T23:57:08;415.53;;;314.87;;
